Time;durP1;ratioP1;P1;durP2;ratioP2;P2;SDS_P1;SDS_P2;PMS_P1;PMS_P2;Temp;Humidity;BMP_temperature;BMP_pressure;BME280_temperature;BME280_humidity;BME280_pressure;Samples;Min_cycle;Max_cycle;Signal;HPM_P1;HPM_P2
2022/05/23 00:02:00;;;;;;;13.25;5.90;;;;;;;;;;5015337;28;20022;-74
2022/05/23 00:04:26;;;;;;;14.32;5.50;;;;;;;;;;5021810;28;20041;-72
2022/05/23 00:06:52;;;;;;;17.80;5.78;;;;;;;;;;5019453;28;20025;-72
2022/05/23 00:09:18;;;;;;;18.67;6.10;;;;;;;;;;5018182;28;20018;-73
2022/05/23 00:11:44;;;;;;;14.57;5.20;;;;;;;;;;5018504;28;20519;-74
2022/05/23 00:14:10;;;;;;;14.23;5.85;;;;;;;;;;5018727;28;20030;-69
2022/05/23 00:16:40;;;;;;;14.60;5.70;;;;;;;;;;5015066;28;20361;-71
2022/05/23 00:19:09;;;;;;;15.77;5.57;;;;;;;;;;5013461;28;20026;-68
2022/05/23 00:21:35;;;;;;;15.35;5.47;;;;;;;;;;5013430;28;20025;-69
2022/05/23 00:24:00;;;;;;;18.80;5.80;;;;;;;;;;5013538;28;20068;-69
2022/05/23 00:26:26;;;;;;;14.43;5.28;;;;;;;;;;5013307;28;20049;-71
2022/05/23 00:28:52;;;;;;;15.45;5.72;;;;;;;;;;5013661;28;20060;-73
2022/05/23 00:31:17;;;;;;;14.07;5.47;;;;;;;;;;5013321;28;20058;-70
2022/05/23 00:36:32;;;;;;;10.80;5.50;;;;;;;;;;5013020;28;20081;-69
2022/05/23 00:38:58;;;;;;;12.57;5.03;;;;;;;;;;5012819;28;20034;-66
2022/05/23 00:44:21;;;;;;;14.10;5.25;;;;;;;;;;5012868;28;20216;-70
2022/05/23 00:46:53;;;;;;;15.00;5.35;;;;;;;;;;5012982;28;20072;-67
2022/05/23 00:49:22;;;;;;;15.55;5.38;;;;;;;;;;5013206;28;20168;-71
2022/05/23 00:51:48;;;;;;;14.63;5.07;;;;;;;;;;5012419;28;20489;-66
2022/05/23 00:54:15;;;;;;;15.20;5.65;;;;;;;;;;5012505;28;20065;-67
2022/05/23 00:56:44;;;;;;;16.58;5.28;;;;;;;;;;5013071;28;20485;-69
2022/05/23 00:59:12;;;;;;;14.27;5.10;;;;;;;;;;5012326;28;20109;-71
2022/05/23 01:01:38;;;;;;;19.38;5.50;;;;;;;;;;5012786;28;20109;-70
2022/05/23 01:04:07;;;;;;;16.20;5.25;;;;;;;;;;5012622;28;20037;-68
2022/05/23 01:06:34;;;;;;;16.92;5.05;;;;;;;;;;5012343;28;20453;-70
2022/05/23 01:08:59;;;;;;;15.25;5.05;;;;;;;;;;5012192;28;20492;-68
2022/05/23 01:11:25;;;;;;;12.90;5.30;;;;;;;;;;5012445;28;20026;-68
2022/05/23 01:13:53;;;;;;;14.52;5.00;;;;;;;;;;5012472;28;20342;-70
2022/05/23 01:16:23;;;;;;;19.00;5.20;;;;;;;;;;5012571;28;20053;-66
2022/05/23 01:18:49;;;;;;;17.52;5.07;;;;;;;;;;5012027;28;20076;-62
2022/05/23 01:21:24;;;;;;;15.27;4.88;;;;;;;;;;5012233;28;20026;-70
2022/05/23 01:24:07;;;;;;;15.50;4.88;;;;;;;;;;5012171;28;20076;-70
2022/05/23 01:26:33;;;;;;;21.75;5.55;;;;;;;;;;5011892;28;20030;-72
2022/05/23 01:28:59;;;;;;;19.17;5.20;;;;;;;;;;5010414;28;20034;-69
2022/05/23 01:31:24;;;;;;;17.63;5.40;;;;;;;;;;5011962;28;20109;-70
2022/05/23 01:33:49;;;;;;;16.70;5.45;;;;;;;;;;5012081;28;20541;-66
2022/05/23 01:36:15;;;;;;;17.27;4.93;;;;;;;;;;5012134;28;20034;-67
2022/05/23 01:38:41;;;;;;;14.50;4.85;;;;;;;;;;5011997;28;20120;-67
2022/05/23 01:41:07;;;;;;;21.55;5.47;;;;;;;;;;5011763;28;20076;-68
2022/05/23 01:43:33;;;;;;;21.63;4.95;;;;;;;;;;5011724;28;20029;-67
2022/05/23 01:45:58;;;;;;;14.93;5.22;;;;;;;;;;5011608;28;20057;-67
2022/05/23 01:48:25;;;;;;;20.85;5.25;;;;;;;;;;5011808;28;20073;-67
2022/05/23 01:50:50;;;;;;;15.57;4.90;;;;;;;;;;5011566;28;20502;-69
2022/05/23 01:53:15;;;;;;;17.00;4.93;;;;;;;;;;5011662;28;20038;-70
2022/05/23 01:55:41;;;;;;;16.27;5.03;;;;;;;;;;5011936;28;20068;-72
2022/05/23 01:58:06;;;;;;;14.98;4.60;;;;;;;;;;5011512;28;20060;-72
2022/05/23 02:03:16;;;;;;;14.70;4.13;;;;;;;;;;5011747;28;20064;-69
2022/05/23 02:05:42;;;;;;;11.82;3.75;;;;;;;;;;5010876;28;20030;-73
2022/05/23 02:08:08;;;;;;;14.52;3.65;;;;;;;;;;5011313;28;20080;-72
2022/05/23 02:10:33;;;;;;;11.93;3.63;;;;;;;;;;5011104;28;20026;-71
2022/05/23 02:13:02;;;;;;;11.52;3.58;;;;;;;;;;5011514;28;20095;-69
2022/05/23 02:15:32;;;;;;;11.48;3.60;;;;;;;;;;5011403;28;20053;-68
2022/05/23 02:17:59;;;;;;;12.55;3.53;;;;;;;;;;5011039;28;20116;-69
2022/05/23 02:20:26;;;;;;;11.65;3.25;;;;;;;;;;5010981;28;20065;-71
2022/05/23 02:22:51;;;;;;;10.13;3.15;;;;;;;;;;5010939;28;20060;-69
2022/05/23 02:25:17;;;;;;;8.50;3.17;;;;;;;;;;5011375;28;20052;-71
2022/05/23 02:27:42;;;;;;;11.23;3.30;;;;;;;;;;5011140;28;20072;-69
2022/05/23 02:30:08;;;;;;;10.95;3.15;;;;;;;;;;5011020;28;20049;-70
2022/05/23 02:32:34;;;;;;;8.95;2.80;;;;;;;;;;5010905;28;20113;-68
2022/05/23 02:34:59;;;;;;;8.15;3.20;;;;;;;;;;5011324;28;20033;-71
2022/05/23 02:37:25;;;;;;;10.88;3.00;;;;;;;;;;5010593;28;20608;-68
2022/05/23 02:39:50;;;;;;;12.98;3.13;;;;;;;;;;5010814;28;20378;-67
2022/05/23 02:42:16;;;;;;;9.52;3.15;;;;;;;;;;5010826;28;20045;-74
2022/05/23 02:44:42;;;;;;;10.30;3.30;;;;;;;;;;5010877;28;20259;-72
2022/05/23 02:47:07;;;;;;;8.85;2.90;;;;;;;;;;5011117;28;20567;-72
2022/05/23 02:49:33;;;;;;;9.65;3.20;;;;;;;;;;5010888;28;20030;-67
2022/05/23 02:51:58;;;;;;;7.63;3.13;;;;;;;;;;5010301;28;20030;-71
2022/05/23 02:54:23;;;;;;;11.15;3.22;;;;;;;;;;5010608;28;20053;-67
2022/05/23 02:56:49;;;;;;;11.73;3.30;;;;;;;;;;5010584;28;20109;-71
2022/05/23 02:59:14;;;;;;;11.30;2.70;;;;;;;;;;5009076;28;20413;-67
2022/05/23 03:04:24;;;;;;;8.75;2.50;;;;;;;;;;5010657;28;20508;-70
2022/05/23 03:06:50;;;;;;;10.88;2.60;;;;;;;;;;5010439;28;20026;-72
2022/05/23 03:09:15;;;;;;;8.10;2.38;;;;;;;;;;5010230;28;20040;-66
2022/05/23 03:11:41;;;;;;;8.43;2.50;;;;;;;;;;5010424;28;20030;-72
2022/05/23 03:14:06;;;;;;;12.63;2.50;;;;;;;;;;5010259;28;20018;-72
2022/05/23 03:16:32;;;;;;;5.70;2.13;;;;;;;;;;5010316;28;20438;-67
2022/05/23 03:18:57;;;;;;;8.80;2.60;;;;;;;;;;5007975;28;20516;-72
2022/05/23 03:26:59;;;;;;;7.38;2.38;;;;;;;;;;5010210;28;20417;-68
2022/05/23 03:29:26;;;;;;;5.05;1.92;;;;;;;;;;5009890;28;20033;-73
2022/05/23 03:31:51;;;;;;;5.88;1.90;;;;;;;;;;5010039;28;20097;-68
2022/05/23 03:34:17;;;;;;;8.75;2.22;;;;;;;;;;5010008;28;20101;-69
2022/05/23 03:36:42;;;;;;;6.05;1.75;;;;;;;;;;5010088;28;20378;-72
2022/05/23 03:39:08;;;;;;;4.65;1.92;;;;;;;;;;5009948;28;20468;-70
2022/05/23 03:41:34;;;;;;;6.75;2.00;;;;;;;;;;5009651;28;20064;-69
2022/05/23 03:43:59;;;;;;;8.68;2.00;;;;;;;;;;5009832;28;20088;-66
2022/05/23 03:46:24;;;;;;;6.90;2.10;;;;;;;;;;5009987;28;20030;-66
2022/05/23 03:48:50;;;;;;;4.97;1.60;;;;;;;;;;5010347;28;20072;-70
2022/05/23 03:51:16;;;;;;;6.18;1.92;;;;;;;;;;5009629;28;20026;-66
2022/05/23 03:53:41;;;;;;;7.90;1.90;;;;;;;;;;5010076;28;20105;-70
2022/05/23 03:56:07;;;;;;;6.07;2.03;;;;;;;;;;5010025;28;20397;-71
2022/05/23 03:58:33;;;;;;;6.25;2.00;;;;;;;;;;5009861;28;20105;-71
2022/05/23 04:01:14;;;;;;;7.55;2.10;;;;;;;;;;5009520;28;20470;-74
2022/05/23 04:03:40;;;;;;;7.28;2.00;;;;;;;;;;5009691;28;20026;-69
2022/05/23 04:06:06;;;;;;;7.60;2.05;;;;;;;;;;5009589;28;20033;-68
2022/05/23 04:08:32;;;;;;;11.48;2.35;;;;;;;;;;5009780;28;20026;-68
2022/05/23 04:10:57;;;;;;;7.88;2.20;;;;;;;;;;5009648;28;20033;-68
2022/05/23 04:13:24;;;;;;;6.70;1.98;;;;;;;;;;5010234;28;20524;-67
2022/05/23 04:15:50;;;;;;;10.02;2.58;;;;;;;;;;5009750;28;20076;-73
2022/05/23 04:18:16;;;;;;;9.30;2.42;;;;;;;;;;5009555;28;20041;-67
2022/05/23 04:20:41;;;;;;;8.57;2.33;;;;;;;;;;5009283;28;20026;-67
2022/05/23 04:23:08;;;;;;;9.70;2.50;;;;;;;;;;5009674;28;20030;-68
2022/05/23 04:25:41;;;;;;;6.95;2.28;;;;;;;;;;5009725;28;20030;-68
2022/05/23 04:28:08;;;;;;;7.45;2.17;;;;;;;;;;5009654;28;20068;-67
2022/05/23 04:30:34;;;;;;;6.53;2.03;;;;;;;;;;5012181;28;20535;-68
2022/05/23 04:35:44;;;;;;;7.40;2.22;;;;;;;;;;5012951;28;20053;-68
2022/05/23 04:38:11;;;;;;;6.53;2.05;;;;;;;;;;5012917;28;20029;-67
2022/05/23 04:40:37;;;;;;;7.68;2.15;;;;;;;;;;5012908;28;20037;-68
2022/05/23 04:43:03;;;;;;;6.47;1.92;;;;;;;;;;5013130;28;20034;-68
2022/05/23 04:45:29;;;;;;;8.00;2.22;;;;;;;;;;5012916;28;20061;-67
2022/05/23 04:50:38;;;;;;;7.85;2.40;;;;;;;;;;5012410;28;20543;-67
2022/05/23 04:53:04;;;;;;;7.80;2.03;;;;;;;;;;5012625;28;20030;-67
2022/05/23 04:55:30;;;;;;;4.78;2.15;;;;;;;;;;5012874;28;20029;-67
2022/05/23 04:57:58;;;;;;;7.22;2.00;;;;;;;;;;5011286;28;20113;-66
2022/05/23 05:00:24;;;;;;;5.18;2.22;;;;;;;;;;5012531;28;20037;-68
2022/05/23 05:02:50;;;;;;;7.00;2.20;;;;;;;;;;5012888;28;20022;-66
2022/05/23 05:05:16;;;;;;;7.30;2.33;;;;;;;;;;5012512;28;20018;-67
2022/05/23 05:07:41;;;;;;;7.93;2.17;;;;;;;;;;5012480;28;20076;-72
2022/05/23 05:10:08;;;;;;;7.07;2.45;;;;;;;;;;5012325;28;20121;-70
2022/05/23 05:12:33;;;;;;;6.53;2.30;;;;;;;;;;5012591;28;20528;-71
2022/05/23 05:14:59;;;;;;;9.50;2.63;;;;;;;;;;5012425;28;20022;-71
2022/05/23 05:17:27;;;;;;;9.77;2.72;;;;;;;;;;5012194;28;20084;-72
2022/05/23 05:19:53;;;;;;;9.65;2.70;;;;;;;;;;5012241;28;20363;-70
2022/05/23 05:22:18;;;;;;;8.65;2.70;;;;;;;;;;5012188;28;20144;-68
2022/05/23 05:24:44;;;;;;;9.63;3.03;;;;;;;;;;5012312;28;20101;-71
2022/05/23 05:27:10;;;;;;;9.25;2.75;;;;;;;;;;5012150;28;20079;-72
2022/05/23 05:29:37;;;;;;;9.30;2.70;;;;;;;;;;5012359;28;20030;-73
2022/05/23 05:32:07;;;;;;;7.22;2.72;;;;;;;;;;5011806;28;20018;-68
2022/05/23 05:34:40;;;;;;;10.20;3.00;;;;;;;;;;5012558;28;20049;-68
2022/05/23 05:37:15;;;;;;;9.48;2.80;;;;;;;;;;5012077;28;20394;-74
2022/05/23 05:39:43;;;;;;;10.73;3.53;;;;;;;;;;5011919;28;20026;-72
2022/05/23 05:42:32;;;;;;;14.60;3.50;;;;;;;;;;5010795;28;20452;-73
2022/05/23 05:45:07;;;;;;;15.40;3.15;;;;;;;;;;5011512;28;20053;-72
2022/05/23 05:47:36;;;;;;;10.88;3.10;;;;;;;;;;5011581;28;20592;-72
2022/05/23 05:50:07;;;;;;;12.07;2.97;;;;;;;;;;5011747;28;20381;-71
2022/05/23 05:52:33;;;;;;;9.32;3.00;;;;;;;;;;5010235;28;20029;-70
2022/05/23 05:55:01;;;;;;;11.98;3.22;;;;;;;;;;5012046;28;20248;-71
2022/05/23 05:57:27;;;;;;;12.60;3.50;;;;;;;;;;5011575;28;20021;-69
2022/05/23 05:59:53;;;;;;;12.82;3.40;;;;;;;;;;5011694;28;20045;-68
2022/05/23 06:02:18;;;;;;;13.82;3.00;;;;;;;;;;5011336;28;20068;-69
2022/05/23 06:04:45;;;;;;;13.82;2.90;;;;;;;;;;5011788;28;20109;-68
2022/05/23 06:12:48;;;;;;;11.48;3.10;;;;;;;;;;5011713;28;20044;-71
2022/05/23 06:15:14;;;;;;;13.35;3.17;;;;;;;;;;5011396;28;20026;-72
2022/05/23 06:17:43;;;;;;;13.27;2.78;;;;;;;;;;5011135;28;20068;-72
2022/05/23 06:20:13;;;;;;;10.65;2.85;;;;;;;;;;5011545;28;20034;-68
2022/05/23 06:22:39;;;;;;;8.60;2.97;;;;;;;;;;5010830;28;20477;-72
2022/05/23 06:25:05;;;;;;;11.07;2.95;;;;;;;;;;5011638;28;20040;-68
2022/05/23 06:27:31;;;;;;;17.20;2.63;;;;;;;;;;5011358;28;20026;-72
2022/05/23 06:29:56;;;;;;;9.70;2.78;;;;;;;;;;5011069;28;20037;-69
2022/05/23 06:32:22;;;;;;;12.15;2.75;;;;;;;;;;5009664;28;20199;-71
2022/05/23 06:34:47;;;;;;;10.93;2.58;;;;;;;;;;5011078;28;20036;-71
2022/05/23 06:37:13;;;;;;;10.32;2.75;;;;;;;;;;5010487;28;20489;-69
2022/05/23 06:39:38;;;;;;;10.52;2.60;;;;;;;;;;5010631;28;20061;-66
2022/05/23 06:42:05;;;;;;;8.23;2.72;;;;;;;;;;5010518;28;20030;-68
2022/05/23 06:44:31;;;;;;;10.93;2.42;;;;;;;;;;5010718;28;20163;-73
2022/05/23 06:46:56;;;;;;;11.05;2.50;;;;;;;;;;5010846;28;20034;-68
2022/05/23 06:49:22;;;;;;;11.02;2.67;;;;;;;;;;5010580;28;20105;-69
2022/05/23 06:51:51;;;;;;;9.13;2.60;;;;;;;;;;5010252;28;20112;-72
2022/05/23 06:54:21;;;;;;;10.80;2.67;;;;;;;;;;5011006;28;20307;-70
2022/05/23 06:56:48;;;;;;;12.57;2.88;;;;;;;;;;5010815;28;20551;-68
2022/05/23 06:59:15;;;;;;;8.35;2.60;;;;;;;;;;5010438;28;20053;-73
2022/05/23 07:01:41;;;;;;;11.77;2.75;;;;;;;;;;5010420;28;20026;-73
2022/05/23 07:04:07;;;;;;;11.35;2.80;;;;;;;;;;5010514;28;20025;-70
2022/05/23 07:14:44;;;;;;;9.77;2.90;;;;;;;;;;5010329;28;20578;-71
2022/05/23 07:17:09;;;;;;;11.10;2.72;;;;;;;;;;5010165;28;20100;-70
2022/05/23 07:19:36;;;;;;;9.13;2.97;;;;;;;;;;5010554;28;20030;-71
2022/05/23 07:22:02;;;;;;;8.23;2.80;;;;;;;;;;5008937;28;20068;-73
2022/05/23 07:24:28;;;;;;;12.23;2.70;;;;;;;;;;5010686;28;20045;-73
2022/05/23 07:26:54;;;;;;;7.72;2.40;;;;;;;;;;5010152;28;20034;-72
2022/05/23 07:29:23;;;;;;;9.35;2.40;;;;;;;;;;5009964;28;20034;-67
2022/05/23 07:31:50;;;;;;;11.23;2.42;;;;;;;;;;5010001;28;20030;-68
2022/05/23 07:34:17;;;;;;;9.05;2.60;;;;;;;;;;5010012;28;20115;-67
2022/05/23 07:36:42;;;;;;;10.77;2.58;;;;;;;;;;5008836;28;20030;-67
2022/05/23 07:39:08;;;;;;;10.18;2.55;;;;;;;;;;5010092;28;20034;-67
2022/05/23 07:41:34;;;;;;;8.32;2.35;;;;;;;;;;5009946;28;20026;-67
2022/05/23 07:44:00;;;;;;;9.23;2.15;;;;;;;;;;5009828;28;20104;-66
2022/05/23 07:46:26;;;;;;;9.02;2.47;;;;;;;;;;5010001;28;20444;-69
2022/05/23 07:48:51;;;;;;;13.52;2.47;;;;;;;;;;5010054;28;20048;-66
2022/05/23 07:51:20;;;;;;;8.75;2.40;;;;;;;;;;5009657;28;20109;-69
2022/05/23 08:01:58;;;;;;;9.40;2.33;;;;;;;;;;5010487;28;20098;-73
2022/05/23 08:04:24;;;;;;;11.27;2.67;;;;;;;;;;5010773;28;20026;-69
2022/05/23 08:06:51;;;;;;;11.32;2.60;;;;;;;;;;5013506;28;20053;-67
2022/05/23 08:09:17;;;;;;;7.68;2.47;;;;;;;;;;5014070;28;20405;-67
2022/05/23 08:11:46;;;;;;;8.90;2.30;;;;;;;;;;5013698;28;20026;-66
2022/05/23 08:14:12;;;;;;;9.38;1.92;;;;;;;;;;5014035;28;20030;-72
2022/05/23 08:16:38;;;;;;;12.00;2.60;;;;;;;;;;5013586;28;20037;-73
2022/05/23 08:19:05;;;;;;;12.82;2.55;;;;;;;;;;5013576;28;20053;-71
2022/05/23 08:21:31;;;;;;;8.82;2.40;;;;;;;;;;5013217;28;20080;-73
2022/05/23 08:23:57;;;;;;;11.48;2.40;;;;;;;;;;5013454;28;20021;-73
2022/05/23 08:26:22;;;;;;;9.73;2.83;;;;;;;;;;5013378;28;20030;-68
2022/05/23 08:28:49;;;;;;;12.15;2.35;;;;;;;;;;5013368;28;20038;-75
2022/05/23 08:31:14;;;;;;;13.05;2.20;;;;;;;;;;5013323;28;20283;-73
2022/05/23 08:33:40;;;;;;;8.85;2.33;;;;;;;;;;5013191;28;20150;-71
2022/05/23 08:36:06;;;;;;;10.82;2.20;;;;;;;;;;5013112;28;20077;-74
2022/05/23 08:38:31;;;;;;;12.00;2.30;;;;;;;;;;5013112;28;20038;-73
2022/05/23 08:41:14;;;;;;;11.88;2.40;;;;;;;;;;5012884;28;20512;-72
2022/05/23 08:43:41;;;;;;;6.40;2.50;;;;;;;;;;5012565;28;20537;-74
2022/05/23 08:46:08;;;;;;;7.72;2.30;;;;;;;;;;5012983;28;20022;-72
2022/05/23 08:48:43;;;;;;;13.35;2.50;;;;;;;;;;5013010;28;20221;-73
2022/05/23 08:51:26;;;;;;;8.43;2.22;;;;;;;;;;5012921;28;20026;-68
2022/05/23 08:54:35;;;;;;;6.95;2.10;;;;;;;;;;5013220;28;20026;-73
2022/05/23 08:57:04;;;;;;;5.80;2.03;;;;;;;;;;5009505;28;20111;-68
2022/05/23 08:59:37;;;;;;;8.18;2.30;;;;;;;;;;5012498;28;20034;-69
2022/05/23 09:02:12;;;;;;;7.55;1.90;;;;;;;;;;5012861;28;20026;-67
2022/05/23 09:04:50;;;;;;;9.10;2.28;;;;;;;;;;5012792;28;20042;-66
2022/05/23 09:07:38;;;;;;;10.30;2.08;;;;;;;;;;5012900;28;20030;-71
2022/05/23 09:10:14;;;;;;;10.63;2.40;;;;;;;;;;5012733;28;20439;-73
2022/05/23 09:12:40;;;;;;;11.25;2.35;;;;;;;;;;5011005;28;20401;-73
2022/05/23 09:15:06;;;;;;;7.72;1.92;;;;;;;;;;5012271;28;20030;-72
2022/05/23 09:17:37;;;;;;;10.02;1.92;;;;;;;;;;5012482;28;20080;-73
2022/05/23 09:20:14;;;;;;;7.35;2.13;;;;;;;;;;5010983;28;20026;-71
2022/05/23 09:22:52;;;;;;;10.65;1.80;;;;;;;;;;5012021;28;20053;-72
2022/05/23 09:25:21;;;;;;;10.13;2.10;;;;;;;;;;5012403;28;20033;-70
2022/05/23 09:27:51;;;;;;;6.65;1.88;;;;;;;;;;5012157;28;20219;-72
2022/05/23 09:30:19;;;;;;;;;;;;;;;;;;5012671;28;20092;-73
2022/05/23 09:32:59;;;;;;;8.95;2.10;;;;;;;;;;5011844;28;19935;-69
2022/05/23 09:35:47;;;;;;;9.05;1.90;;;;;;;;;;5012067;28;20105;-71
2022/05/23 09:38:16;;;;;;;6.57;2.25;;;;;;;;;;5011934;28;20040;-69
2022/05/23 09:40:42;;;;;;;8.73;1.83;;;;;;;;;;5012018;28;20022;-74
2022/05/23 09:49:14;;;;;;;6.15;1.95;;;;;;;;;;5011962;28;20405;-67
2022/05/23 09:51:58;;;;;;;7.30;2.05;;;;;;;;;;5011476;28;20057;-73
2022/05/23 09:54:46;;;;;;;9.65;2.00;;;;;;;;;;5012083;28;20033;-73
2022/05/23 09:57:24;;;;;;;5.50;1.90;;;;;;;;;;5011603;28;20033;-70
2022/05/23 09:59:59;;;;;;;6.78;1.77;;;;;;;;;;5011692;28;20034;-71
2022/05/23 10:02:35;;;;;;;6.70;1.67;;;;;;;;;;5011461;28;20550;-69
2022/05/23 10:05:02;;;;;;;11.13;2.15;;;;;;;;;;5011214;28;20080;-72
2022/05/23 10:07:29;;;;;;;4.90;1.70;;;;;;;;;;5011183;28;20076;-71
2022/05/23 10:10:20;;;;;;;7.20;1.70;;;;;;;;;;5011476;28;20355;-71
2022/05/23 10:12:47;;;;;;;11.13;1.80;;;;;;;;;;5007868;28;20038;-68
2022/05/23 10:15:20;;;;;;;5.20;1.60;;;;;;;;;;5011530;28;20025;-68
2022/05/23 10:18:05;;;;;;;7.25;1.88;;;;;;;;;;5011321;28;20485;-67
2022/05/23 10:20:39;;;;;;;8.13;1.85;;;;;;;;;;5011181;28;20034;-66
2022/05/23 10:23:13;;;;;;;9.50;1.98;;;;;;;;;;5011013;28;20028;-68
2022/05/23 10:25:50;;;;;;;7.93;1.75;;;;;;;;;;5011006;28;20033;-72
2022/05/23 10:28:31;;;;;;;6.10;1.95;;;;;;;;;;5010547;28;20030;-73
2022/05/23 10:31:04;;;;;;;8.77;1.90;;;;;;;;;;5011154;28;20037;-69
2022/05/23 10:33:30;;;;;;;7.75;1.90;;;;;;;;;;5010930;28;20021;-67
2022/05/23 10:36:21;;;;;;;5.75;1.73;;;;;;;;;;5011230;28;20026;-70
2022/05/23 10:45:03;;;;;;;6.65;1.80;;;;;;;;;;5010656;28;20417;-69
2022/05/23 10:47:31;;;;;;;8.88;1.70;;;;;;;;;;5010837;28;20462;-69
2022/05/23 10:50:08;;;;;;;11.50;2.22;;;;;;;;;;5010840;28;20041;-68
2022/05/23 10:52:53;;;;;;;7.13;2.33;;;;;;;;;;5010786;28;20107;-67
2022/05/23 10:55:22;;;;;;;8.15;2.47;;;;;;;;;;5010478;28;20504;-72
2022/05/23 10:58:23;;;;;;;7.28;1.90;;;;;;;;;;5010538;28;20022;-68
2022/05/23 11:00:54;;;;;;;9.05;1.88;;;;;;;;;;5010713;28;20117;-68
2022/05/23 11:03:35;;;;;;;6.22;1.63;;;;;;;;;;5010365;28;20049;-67
2022/05/23 11:06:34;;;;;;;5.50;1.50;;;;;;;;;;5010878;28;20172;-68
2022/05/23 11:09:32;;;;;;;5.82;1.40;;;;;;;;;;5010575;28;20038;-67
2022/05/23 11:12:15;;;;;;;6.68;1.40;;;;;;;;;;5010528;28;20417;-73
2022/05/23 11:14:59;;;;;;;9.60;1.63;;;;;;;;;;5010533;28;20101;-67
2022/05/23 11:17:34;;;;;;;8.35;1.50;;;;;;;;;;5010208;28;20044;-69
2022/05/23 11:20:33;;;;;;;6.70;1.60;;;;;;;;;;5010006;28;20563;-70
2022/05/23 11:23:08;;;;;;;8.23;1.70;;;;;;;;;;4997913;28;20045;-68
2022/05/23 11:25:39;;;;;;;7.13;1.90;;;;;;;;;;5010211;28;20037;-67
2022/05/23 11:33:47;;;;;;;6.90;1.67;;;;;;;;;;5010087;28;20104;-67
2022/05/23 11:36:23;;;;;;;7.93;1.67;;;;;;;;;;5009736;28;20030;-69
2022/05/23 11:38:50;;;;;;;6.97;1.40;;;;;;;;;;5010053;28;20422;-72
2022/05/23 11:41:34;;;;;;;6.20;1.80;;;;;;;;;;5014165;28;20042;-69
2022/05/23 11:44:58;;;;;;;6.53;1.55;;;;;;;;;;5014021;28;20054;-71
2022/05/23 11:47:44;;;;;;;6.45;1.67;;;;;;;;;;4991955;28;20134;-73
2022/05/23 11:50:30;;;;;;;7.53;1.50;;;;;;;;;;4991831;28;20164;-73
2022/05/23 11:53:06;;;;;;;10.85;1.80;;;;;;;;;;5007746;28;20045;-68
2022/05/23 11:55:50;;;;;;;12.10;1.73;;;;;;;;;;5013939;28;20026;-68
2022/05/23 11:58:36;;;;;;;5.32;1.65;;;;;;;;;;5013980;28;20076;-71
2022/05/23 12:01:01;;;;;;;8.43;1.80;;;;;;;;;;5013896;28;20033;-73
2022/05/23 12:03:47;;;;;;;9.20;1.80;;;;;;;;;;5013785;28;20034;-73
2022/05/23 12:06:39;;;;;;;9.98;2.20;;;;;;;;;;5013490;28;20022;-73
2022/05/23 12:09:16;;;;;;;6.50;1.55;;;;;;;;;;5012624;28;20042;-71
2022/05/23 12:11:46;;;;;;;9.35;1.92;;;;;;;;;;5013375;28;20025;-72
2022/05/23 12:14:11;;;;;;;7.43;1.85;;;;;;;;;;5013263;28;20026;-73
2022/05/23 12:16:57;;;;;;;11.80;2.13;;;;;;;;;;5013669;28;20072;-74
2022/05/23 12:19:32;;;;;;;10.23;1.95;;;;;;;;;;5013547;28;20033;-71
2022/05/23 12:22:18;;;;;;;9.30;1.80;;;;;;;;;;5013470;28;20587;-73
2022/05/23 12:25:08;;;;;;;10.40;2.25;;;;;;;;;;5013114;28;20022;-73
2022/05/23 12:27:39;;;;;;;7.33;2.23;;;;;;;;;;5013207;28;20728;-72
2022/05/23 12:30:17;;;;;;;7.75;1.80;;;;;;;;;;5013128;28;20099;-67
2022/05/23 12:32:44;;;;;;;10.00;2.40;;;;;;;;;;5013779;28;20034;-67
2022/05/23 12:35:13;;;;;;;8.30;2.10;;;;;;;;;;5012895;28;20080;-66
2022/05/23 12:37:47;;;;;;;9.13;1.92;;;;;;;;;;5012915;28;20076;-68
2022/05/23 12:40:25;;;;;;;9.20;1.73;;;;;;;;;;5013315;28;20034;-69
2022/05/23 12:43:04;;;;;;;10.63;1.90;;;;;;;;;;5012838;28;20049;-66
2022/05/23 12:45:29;;;;;;;8.48;2.28;;;;;;;;;;5012518;28;20664;-66
2022/05/23 12:48:00;;;;;;;12.15;2.08;;;;;;;;;;5012839;28;20573;-70
2022/05/23 12:50:41;;;;;;;11.18;2.13;;;;;;;;;;5012555;28;20061;-66
2022/05/23 12:53:44;;;;;;;10.73;2.10;;;;;;;;;;5012678;28;20054;-69
2022/05/23 12:56:48;;;;;;;8.95;1.70;;;;;;;;;;4993144;28;20081;-71
2022/05/23 12:59:43;;;;;;;12.80;2.50;;;;;;;;;;5002301;28;20053;-68
2022/05/23 13:02:18;;;;;;;11.73;2.05;;;;;;;;;;5012639;28;20034;-67
2022/05/23 13:04:52;;;;;;;9.10;1.90;;;;;;;;;;5012808;28;20080;-68
2022/05/23 13:07:41;;;;;;;9.25;2.10;;;;;;;;;;5013049;28;20056;-67
2022/05/23 13:10:09;;;;;;;9.63;1.80;;;;;;;;;;5012509;28;20026;-68
2022/05/23 13:12:52;;;;;;;16.25;2.08;;;;;;;;;;5012679;28;20021;-67
2022/05/23 13:15:24;;;;;;;11.13;1.90;;;;;;;;;;5012388;28;20025;-67
2022/05/23 13:17:49;;;;;;;8.13;1.60;;;;;;;;;;5012475;28;20170;-68
2022/05/23 13:23:22;;;;;;;8.52;1.98;;;;;;;;;;5012279;28;20036;-71
2022/05/23 13:25:48;;;;;;;11.98;2.05;;;;;;;;;;5012470;28;20033;-72
2022/05/23 13:28:15;;;;;;;9.02;1.80;;;;;;;;;;5012335;28;20477;-70
2022/05/23 13:30:47;;;;;;;9.65;1.88;;;;;;;;;;5012520;28;20109;-74
2022/05/23 13:33:19;;;;;;;9.57;1.58;;;;;;;;;;5012044;28;20105;-73
2022/05/23 13:35:46;;;;;;;7.47;1.63;;;;;;;;;;5011811;28;20069;-72
2022/05/23 13:38:21;;;;;;;10.32;1.63;;;;;;;;;;5011869;28;20379;-73
2022/05/23 13:40:56;;;;;;;8.32;1.65;;;;;;;;;;5011969;28;20109;-69
2022/05/23 13:43:26;;;;;;;6.18;1.77;;;;;;;;;;5012020;28;20393;-68
2022/05/23 13:46:23;;;;;;;12.27;1.90;;;;;;;;;;5011516;28;20133;-71
2022/05/23 13:48:53;;;;;;;9.15;1.90;;;;;;;;;;5003927;28;20429;-72
2022/05/23 13:51:26;;;;;;;6.30;1.63;;;;;;;;;;5011936;28;20065;-72
2022/05/23 13:54:04;;;;;;;9.05;1.67;;;;;;;;;;5009943;28;20057;-75
2022/05/23 13:56:30;;;;;;;7.57;1.50;;;;;;;;;;5011480;28;20379;-74
2022/05/23 13:59:01;;;;;;;8.82;1.83;;;;;;;;;;5011525;28;20049;-75
2022/05/23 14:01:46;;;;;;;8.15;1.42;;;;;;;;;;5011341;28;20036;-67
2022/05/23 14:04:14;;;;;;;7.25;1.40;;;;;;;;;;5011314;28;20040;-67
2022/05/23 14:06:54;;;;;;;7.32;1.52;;;;;;;;;;5011247;28;20026;-66
2022/05/23 14:09:21;;;;;;;6.50;1.35;;;;;;;;;;5011551;28;20084;-68
2022/05/23 14:11:51;;;;;;;7.10;1.48;;;;;;;;;;5011353;28;20030;-67
2022/05/23 14:14:33;;;;;;;5.43;1.33;;;;;;;;;;5011147;28;20026;-67
2022/05/23 14:17:28;;;;;;;3.83;1.42;;;;;;;;;;5011309;28;20026;-67
2022/05/23 14:19:56;;;;;;;8.82;1.55;;;;;;;;;;5011389;28;20108;-67
2022/05/23 14:22:30;;;;;;;8.68;1.70;;;;;;;;;;5011099;28;20109;-68
2022/05/23 14:25:20;;;;;;;7.45;1.75;;;;;;;;;;5011169;28;20109;-66
2022/05/23 14:27:49;;;;;;;6.18;1.55;;;;;;;;;;5007936;28;20044;-69
2022/05/23 14:30:23;;;;;;;9.82;1.55;;;;;;;;;;5010905;28;20476;-70
2022/05/23 14:33:07;;;;;;;7.32;1.52;;;;;;;;;;5011017;28;20401;-69
2022/05/23 14:35:35;;;;;;;12.23;1.75;;;;;;;;;;5010903;28;20397;-68
2022/05/23 14:38:01;;;;;;;9.50;1.77;;;;;;;;;;5010889;28;20041;-68
2022/05/23 14:40:39;;;;;;;10.40;2.10;;;;;;;;;;5011099;28;20026;-69
2022/05/23 14:43:10;;;;;;;9.60;1.85;;;;;;;;;;5010747;28;20028;-71
2022/05/23 14:46:11;;;;;;;9.60;2.00;;;;;;;;;;5010127;28;20042;-69
2022/05/23 14:48:40;;;;;;;8.50;1.85;;;;;;;;;;5008049;28;20529;-68
2022/05/23 14:51:13;;;;;;;6.50;1.70;;;;;;;;;;5010547;28;20080;-68
2022/05/23 14:56:40;;;;;;;10.52;2.10;;;;;;;;;;5011148;28;20087;-72
2022/05/23 15:02:01;;;;;;;6.07;1.77;;;;;;;;;;5010774;28;20561;-71
2022/05/23 15:04:29;;;;;;;9.60;1.90;;;;;;;;;;5010211;28;20398;-68
2022/05/23 15:06:57;;;;;;;5.60;1.50;;;;;;;;;;5010536;28;20060;-70
2022/05/23 15:09:23;;;;;;;7.38;1.60;;;;;;;;;;5010273;28;20030;-73
2022/05/23 15:11:49;;;;;;;5.50;1.67;;;;;;;;;;5010543;28;20029;-73
2022/05/23 15:14:16;;;;;;;6.28;1.70;;;;;;;;;;5010189;28;20026;-73
2022/05/23 15:16:42;;;;;;;6.47;1.67;;;;;;;;;;5010301;28;20152;-72
2022/05/23 15:19:09;;;;;;;6.25;1.58;;;;;;;;;;5010468;28;20065;-68
2022/05/23 15:21:36;;;;;;;5.47;1.38;;;;;;;;;;5010029;28;20295;-67
2022/05/23 15:24:01;;;;;;;10.90;1.90;;;;;;;;;;5010050;28;20092;-68
2022/05/23 15:26:30;;;;;;;6.78;1.40;;;;;;;;;;5010341;28;20485;-67
2022/05/23 15:28:57;;;;;;;8.15;1.50;;;;;;;;;;5010133;28;20397;-68
2022/05/23 15:31:25;;;;;;;5.70;1.60;;;;;;;;;;5010204;28;20034;-70
2022/05/23 15:33:52;;;;;;;10.48;1.75;;;;;;;;;;5010085;28;20093;-68
2022/05/23 15:36:18;;;;;;;7.63;1.35;;;;;;;;;;5009782;28;20026;-68
2022/05/23 15:38:44;;;;;;;9.25;1.90;;;;;;;;;;5009750;28;20386;-71
2022/05/23 15:41:10;;;;;;;5.72;1.33;;;;;;;;;;5009909;28;20066;-70
2022/05/23 15:43:37;;;;;;;8.82;1.48;;;;;;;;;;5010021;28;20022;-68
2022/05/23 15:46:07;;;;;;;6.72;1.60;;;;;;;;;;5009685;28;20041;-67
2022/05/23 15:48:33;;;;;;;4.85;1.20;;;;;;;;;;5010077;28;20486;-70
2022/05/23 15:50:58;;;;;;;7.72;1.50;;;;;;;;;;5009951;28;20029;-69
2022/05/23 15:53:24;;;;;;;5.60;1.25;;;;;;;;;;5009723;28;20022;-71
2022/05/23 15:55:52;;;;;;;8.65;2.25;;;;;;;;;;5009395;28;20022;-69
2022/05/23 15:58:19;;;;;;;3.70;1.30;;;;;;;;;;5009749;28;20101;-70
2022/05/23 16:00:46;;;;;;;6.68;1.27;;;;;;;;;;5008882;28;20033;-70
2022/05/23 16:03:12;;;;;;;8.20;1.67;;;;;;;;;;5010350;28;20022;-67
2022/05/23 16:05:40;;;;;;;5.95;1.33;;;;;;;;;;5009666;28;20052;-68
2022/05/23 16:08:09;;;;;;;6.97;1.48;;;;;;;;;;5009899;28;20034;-72
2022/05/23 16:10:37;;;;;;;4.53;1.08;;;;;;;;;;5009577;28;20029;-73